createdAt,value
2022-08-31T00:00:44.252Z,96971.72
2022-08-31T00:02:04.415Z,96974.91
2022-08-31T00:03:25.346Z,96974.06
2022-08-31T00:04:27.782Z,96972.19
2022-08-31T00:05:29.592Z,96966.91
2022-08-31T00:06:32.444Z,96972.19
2022-08-31T00:07:35.420Z,96970.63
2022-08-31T00:08:37.304Z,96973.00
2022-08-31T00:09:39.245Z,96971.41
2022-08-31T00:10:44.917Z,96971.41
2022-08-31T00:11:46.882Z,96968.75
2022-08-31T00:12:49.753Z,96975.34
2022-08-31T00:13:52.032Z,96975.59
2022-08-31T00:14:53.914Z,96977.22
2022-08-31T00:15:56.047Z,96978.00
2022-08-31T00:16:58.440Z,96978.78
2022-08-31T00:18:00.286Z,96978.53
2022-08-31T00:19:02.601Z,96974.59
2022-08-31T00:20:05.238Z,96975.41
2022-08-31T00:21:07.139Z,96980.69
2022-08-31T00:22:09.110Z,96978.59
2022-08-31T00:23:11.986Z,96974.13
2022-08-31T00:24:14.775Z,96980.97
2022-08-31T00:25:16.721Z,96975.44
2022-08-31T00:26:19.022Z,96976.25
2022-08-31T00:27:22.255Z,96970.38
2022-08-31T00:28:24.273Z,96975.28
2022-08-31T00:29:26.179Z,96969.44
2022-08-31T00:30:28.264Z,96975.94
2022-08-31T00:31:30.215Z,96976.38
2022-08-31T00:32:32.117Z,96972.41
2022-08-31T00:33:36.935Z,96974.28
2022-08-31T00:34:38.766Z,96972.72
2022-08-31T00:35:42.202Z,96975.34
2022-08-31T00:36:46.420Z,96972.19
2022-08-31T00:37:48.283Z,96973.53
2022-08-31T00:38:50.779Z,96973.06
2022-08-31T00:39:53.378Z,96976.78
2022-08-31T00:40:55.344Z,96974.72
2022-08-31T00:41:57.296Z,96970.47
2022-08-31T00:43:00.041Z,96975.16
2022-08-31T00:44:03.639Z,96973.53
2022-08-31T00:45:06.240Z,96975.59
2022-08-31T00:46:09.944Z,96976.63
2022-08-31T00:47:11.935Z,96972.97
2022-08-31T00:48:13.755Z,96975.09
2022-08-31T00:49:21.274Z,96974.84
2022-08-31T00:50:24.410Z,96972.50
2022-08-31T00:51:28.085Z,96973.59
2022-08-31T00:52:33.195Z,96976.56
2022-08-31T00:53:39.509Z,96971.81
2022-08-31T00:54:55.711Z,96972.06
2022-08-31T00:55:58.354Z,96967.81
2022-08-31T00:57:00.663Z,96964.06
2022-08-31T00:58:09.693Z,96961.41
2022-08-31T00:59:12.869Z,96970.91
2022-08-31T01:00:17.081Z,96964.03
2022-08-31T01:01:20.498Z,96969.88
2022-08-31T01:02:22.452Z,96965.88
2022-08-31T01:03:24.781Z,96962.41
2022-08-31T01:04:26.722Z,96966.63
2022-08-31T01:05:29.488Z,96958.91
2022-08-31T01:06:31.830Z,96955.94
2022-08-31T01:07:33.813Z,96961.78
2022-08-31T01:08:35.711Z,96960.75
2022-08-31T01:09:40.652Z,96957.59
2022-08-31T01:10:47.300Z,96963.94
2022-08-31T01:11:49.261Z,96962.31
2022-08-31T01:12:53.011Z,96958.09
2022-08-31T01:13:55.343Z,96952.28
2022-08-31T01:14:57.787Z,96951.72
2022-08-31T01:16:02.556Z,96957.00
2022-08-31T01:17:04.792Z,96952.28
2022-08-31T01:18:07.281Z,96952.81
2022-08-31T01:19:13.936Z,96956.56
2022-08-31T01:20:20.637Z,96950.22
2022-08-31T01:21:25.498Z,96951.59
2022-08-31T01:22:30.954Z,96953.97
2022-08-31T01:23:34.460Z,96956.88
2022-08-31T01:24:37.558Z,96955.19
2022-08-31T01:25:40.066Z,96962.56
2022-08-31T01:26:42.307Z,96961.72
2022-08-31T01:27:51.832Z,96956.31
2022-08-31T01:28:57.605Z,96952.25
2022-08-31T01:30:00.038Z,96960.09
2022-08-31T01:31:04.980Z,96955.88
2022-08-31T01:32:07.227Z,96956.13
2022-08-31T01:33:09.621Z,96958.53
2022-08-31T01:34:11.603Z,96957.78
2022-08-31T01:35:13.418Z,96956.00
2022-08-31T01:36:16.320Z,96954.81
2022-08-31T01:37:18.339Z,96955.63
2022-08-31T01:38:32.051Z,96953.06
2022-08-31T01:39:33.899Z,96952.31
2022-08-31T01:40:37.722Z,96951.59
2022-08-31T01:41:43.704Z,96946.59
2022-08-31T01:42:45.717Z,96941.59
2022-08-31T01:43:47.618Z,96947.19
2022-08-31T01:44:49.487Z,96948.53
2022-08-31T01:45:52.074Z,96946.19
2022-08-31T01:46:54.185Z,96950.41
2022-08-31T01:47:56.041Z,96949.38
2022-08-31T01:48:57.881Z,96948.59
2022-08-31T01:49:59.737Z,96943.88
2022-08-31T01:51:01.944Z,96947.06
2022-08-31T01:52:04.569Z,96944.13
2022-08-31T01:53:06.373Z,96943.59
2022-08-31T01:54:08.259Z,96949.88
2022-08-31T01:55:10.197Z,96943.00
2022-08-31T01:56:13.752Z,96939.81
2022-08-31T01:57:16.245Z,96942.72
2022-08-31T01:58:23.629Z,96946.09
2022-08-31T01:59:25.501Z,96942.41
2022-08-31T02:00:29.158Z,96939.53
2022-08-31T02:01:33.692Z,96938.47
2022-08-31T02:02:36.801Z,96937.44
2022-08-31T02:03:38.708Z,96939.81
2022-08-31T02:04:40.584Z,96932.69
2022-08-31T02:05:42.437Z,96934.03
2022-08-31T02:06:45.419Z,96933.00
2022-08-31T02:07:47.457Z,96930.34
2022-08-31T02:08:49.389Z,96928.75
2022-08-31T02:09:51.286Z,96929.25
2022-08-31T02:10:53.220Z,96927.41
2022-08-31T02:11:55.205Z,96929.81
2022-08-31T02:12:57.079Z,96928.19
2022-08-31T02:13:58.925Z,96926.63
2022-08-31T02:15:00.862Z,96930.28
2022-08-31T02:16:03.053Z,96927.66
2022-08-31T02:17:05.155Z,96924.97
2022-08-31T02:18:07.577Z,96925.72
2022-08-31T02:19:09.596Z,96923.81
2022-08-31T02:20:12.916Z,96926.97
2022-08-31T02:21:14.767Z,96922.47
2022-08-31T02:22:16.642Z,96923.81
2022-08-31T02:23:18.720Z,96921.41
2022-08-31T02:24:20.590Z,96924.38
2022-08-31T02:25:22.428Z,96914.91
2022-08-31T02:26:24.712Z,96922.09
2022-08-31T02:27:26.841Z,96919.19
2022-08-31T02:28:28.910Z,96919.72
2022-08-31T02:29:30.852Z,96912.63
2022-08-31T02:30:33.118Z,96920.81
2022-08-31T02:31:35.585Z,96919.53
2022-08-31T02:32:37.513Z,96914.25
2022-08-31T02:33:39.664Z,96911.81
2022-08-31T02:34:41.570Z,96914.72
2022-08-31T02:35:43.906Z,96910.22
2022-08-31T02:36:45.813Z,96911.81
2022-08-31T02:37:48.803Z,96910.78
2022-08-31T02:38:51.145Z,96913.97
2022-08-31T02:39:53.154Z,96910.53
2022-08-31T02:40:55.065Z,96911.31
2022-08-31T02:41:56.971Z,96905.50
2022-08-31T02:42:58.950Z,96911.25
2022-08-31T02:44:00.812Z,96903.84
2022-08-31T02:45:02.680Z,96905.44
2022-08-31T02:46:04.822Z,96907.59
2022-08-31T02:47:06.710Z,96909.16
2022-08-31T02:48:10.112Z,96905.50
2022-08-31T02:49:11.929Z,96903.63
2022-08-31T02:50:13.739Z,96904.19
2022-08-31T02:51:15.569Z,96903.94
2022-08-31T02:52:17.412Z,96901.59
2022-08-31T02:53:20.625Z,96901.31
2022-08-31T02:54:22.559Z,96905.53
2022-08-31T02:55:24.905Z,96902.31
2022-08-31T02:56:26.800Z,96903.34
2022-08-31T02:57:28.745Z,96903.34
2022-08-31T02:58:30.693Z,96906.53
2022-08-31T02:59:32.466Z,96899.41
2022-08-31T03:00:34.769Z,96901.78
2022-08-31T03:01:37.500Z,96903.16
2022-08-31T03:02:41.374Z,96901.84
2022-08-31T03:03:46.511Z,96899.75
2022-08-31T03:04:50.565Z,96898.13
2022-08-31T03:05:52.390Z,96898.13
2022-08-31T03:06:54.291Z,96902.38
2022-08-31T03:07:56.158Z,96902.94
2022-08-31T03:09:00.499Z,96902.94
2022-08-31T03:10:02.801Z,96901.63
2022-08-31T03:11:04.598Z,96897.94
2022-08-31T03:12:06.511Z,96895.03
2022-08-31T03:13:08.292Z,96902.72
2022-08-31T03:14:10.160Z,96897.44
2022-08-31T03:15:12.428Z,96900.59
2022-08-31T03:16:15.763Z,96905.34
2022-08-31T03:17:17.621Z,96896.34
2022-08-31T03:18:19.498Z,96903.47
2022-08-31T03:19:22.069Z,96900.84
2022-08-31T03:20:25.424Z,96897.13
2022-08-31T03:21:27.420Z,96902.97
2022-08-31T03:22:29.777Z,96900.31
2022-08-31T03:23:32.245Z,96900.31
2022-08-31T03:24:34.173Z,96900.31
2022-08-31T03:25:35.995Z,96902.47
2022-08-31T03:26:41.475Z,96904.88
2022-08-31T03:27:44.060Z,96900.38
2022-08-31T03:28:45.958Z,96900.38
2022-08-31T03:29:47.727Z,96901.44
2022-08-31T03:30:49.624Z,96903.50
2022-08-31T03:31:51.560Z,96905.59
2022-08-31T03:32:54.336Z,96905.59
2022-08-31T03:34:03.365Z,96910.88
2022-08-31T03:35:06.250Z,96906.44
2022-08-31T03:36:08.029Z,96900.88
2022-08-31T03:37:09.907Z,96905.13
2022-08-31T03:38:16.196Z,96902.22
2022-08-31T03:39:18.090Z,96903.81
2022-08-31T03:40:20.015Z,96901.44
2022-08-31T03:41:23.239Z,96901.44
2022-08-31T03:42:25.691Z,96903.03
2022-08-31T03:43:29.469Z,96905.66
2022-08-31T03:44:31.389Z,96903.03
2022-08-31T03:45:35.404Z,96904.63
2022-08-31T03:46:38.075Z,96908.31
2022-08-31T03:47:44.517Z,96906.72
2022-08-31T03:48:50.260Z,96906.97
2022-08-31T03:49:52.076Z,96899.53
2022-08-31T03:50:54.706Z,96909.31
2022-08-31T03:51:56.568Z,96907.22
2022-08-31T03:52:59.078Z,96903.78
2022-08-31T03:54:00.880Z,96910.66
2022-08-31T03:55:03.025Z,96905.38
2022-08-31T03:56:07.360Z,96905.13
2022-08-31T03:57:09.297Z,96901.44
2022-08-31T03:58:12.020Z,96909.09
2022-08-31T03:59:13.987Z,96898.78
2022-08-31T04:00:16.681Z,96897.69
2022-08-31T04:01:18.571Z,96907.69
2022-08-31T04:02:20.755Z,96899.78
2022-08-31T04:03:23.543Z,96905.59
2022-08-31T04:04:25.324Z,96905.59
2022-08-31T04:05:31.504Z,96899.53
2022-08-31T04:06:33.835Z,96905.59
2022-08-31T04:07:42.707Z,96906.66
2022-08-31T04:08:45.015Z,96907.97
2022-08-31T04:09:47.647Z,96916.94
2022-08-31T04:10:50.941Z,96911.09
2022-08-31T04:11:52.926Z,96909.25
2022-08-31T04:12:54.718Z,96912.72
2022-08-31T04:13:57.696Z,96903.97
2022-08-31T04:14:59.795Z,96909.25
2022-08-31T04:16:01.802Z,96906.59
2022-08-31T04:17:03.697Z,96905.56
2022-08-31T04:18:06.179Z,96908.75
2022-08-31T04:19:09.043Z,96908.75
2022-08-31T04:20:10.921Z,96901.38
2022-08-31T04:21:17.339Z,96904.81
2022-08-31T04:22:19.136Z,96901.13
2022-08-31T04:23:20.964Z,96907.22
2022-08-31T04:24:23.064Z,96904.56
2022-08-31T04:25:24.891Z,96900.88
2022-08-31T04:26:37.162Z,96905.91
2022-08-31T04:27:39.136Z,96905.13
2022-08-31T04:28:40.991Z,96906.72
2022-08-31T04:29:42.895Z,96906.44
2022-08-31T04:30:44.845Z,96905.41
2022-08-31T04:31:47.490Z,96908.06
2022-08-31T04:32:49.802Z,96913.34
2022-08-31T04:33:52.382Z,96911.72
2022-08-31T04:34:56.484Z,96909.63
2022-08-31T04:35:58.569Z,96908.34
2022-08-31T04:37:00.444Z,96902.00
2022-08-31T04:38:02.316Z,96909.69
2022-08-31T04:39:04.784Z,96902.81
2022-08-31T04:40:07.466Z,96902.81
2022-08-31T04:41:11.039Z,96907.53
2022-08-31T04:42:13.748Z,96906.50
2022-08-31T04:43:15.654Z,96910.47
2022-08-31T04:44:19.957Z,96906.25
2022-08-31T04:45:23.324Z,96905.19
2022-08-31T04:46:26.147Z,96902.00
2022-08-31T04:47:28.116Z,96906.50
2022-08-31T04:48:30.050Z,96905.44
2022-08-31T04:49:31.942Z,96909.91
2022-08-31T04:50:33.707Z,96918.56
2022-08-31T04:51:36.408Z,96911.44
2022-08-31T04:52:38.763Z,96914.66
2022-08-31T04:53:41.198Z,96912.81
2022-08-31T04:54:42.975Z,96919.66
2022-08-31T04:55:44.797Z,96904.63
2022-08-31T04:56:46.687Z,96915.75
2022-08-31T04:57:48.466Z,96911.78
2022-08-31T04:58:54.720Z,96906.22
2022-08-31T04:59:56.592Z,96912.81
2022-08-31T05:00:58.418Z,96911.44
2022-08-31T05:02:01.015Z,96912.50
2022-08-31T05:03:02.889Z,96909.59
2022-08-31T05:04:05.639Z,96902.22
2022-08-31T05:05:07.619Z,96916.78
2022-08-31T05:06:13.328Z,96912.03
2022-08-31T05:07:15.125Z,96908.09
2022-08-31T05:08:16.976Z,96913.91
2022-08-31T05:09:20.775Z,96912.88
2022-08-31T05:10:23.636Z,96912.88
2022-08-31T05:11:26.732Z,96914.97
2022-08-31T05:12:28.579Z,96921.56
2022-08-31T05:13:30.425Z,96918.94
2022-08-31T05:14:32.336Z,96921.28
2022-08-31T05:15:34.271Z,96917.06
2022-08-31T05:16:37.974Z,96927.66
2022-08-31T05:17:39.742Z,96922.84
2022-08-31T05:18:42.604Z,96928.66
2022-08-31T05:19:44.642Z,96926.00
2022-08-31T05:20:47.124Z,96918.09
2022-08-31T05:21:49.263Z,96917.28
2022-08-31T05:22:51.332Z,96919.88
2022-08-31T05:23:53.597Z,96919.56
2022-08-31T05:24:55.474Z,96917.47
2022-08-31T05:25:57.263Z,96925.94
2022-08-31T05:26:59.139Z,96924.66
2022-08-31T05:28:00.969Z,96924.16
2022-08-31T05:29:04.572Z,96928.66
2022-08-31T05:30:09.192Z,96923.38
2022-08-31T05:31:11.018Z,96928.94
2022-08-31T05:32:13.024Z,96932.13
2022-08-31T05:33:15.265Z,96925.53
2022-08-31T05:34:17.989Z,96930.78
2022-08-31T05:35:19.848Z,96928.66
2022-08-31T05:36:21.646Z,96920.72
2022-08-31T05:37:24.473Z,96927.88
2022-08-31T05:38:26.429Z,96923.00
2022-08-31T05:39:28.282Z,96925.31
2022-08-31T05:40:30.111Z,96926.63
2022-08-31T05:41:32.118Z,96929.75
2022-08-31T05:42:34.567Z,96923.91
2022-08-31T05:43:36.608Z,96928.94
2022-08-31T05:44:38.720Z,96929.75
2022-08-31T05:45:43.391Z,96926.56
2022-08-31T05:46:45.288Z,96926.00
2022-08-31T05:47:56.804Z,96929.19
2022-08-31T05:48:58.575Z,96937.44
2022-08-31T05:50:00.377Z,96927.16
2022-08-31T05:51:04.039Z,96939.38
2022-08-31T05:52:06.497Z,96931.47
2022-08-31T05:53:08.889Z,96932.56
2022-08-31T05:54:11.116Z,96931.03
2022-08-31T05:55:13.163Z,96925.50
2022-08-31T05:56:18.929Z,96934.25
2022-08-31T05:57:25.863Z,96940.84
2022-08-31T05:58:28.788Z,96940.63
2022-08-31T05:59:31.491Z,96941.66
2022-08-31T06:00:33.414Z,96941.66
2022-08-31T06:01:37.716Z,96937.44
2022-08-31T06:02:40.294Z,96945.59
2022-08-31T06:03:42.628Z,96943.19
2022-08-31T06:04:44.497Z,96940.00
2022-08-31T06:05:46.353Z,96944.50
2022-08-31T06:06:48.200Z,96948.47
2022-08-31T06:07:50.714Z,96942.16
2022-08-31T06:08:52.851Z,96949.56
2022-08-31T06:09:54.862Z,96941.41
2022-08-31T06:11:01.011Z,96947.72
2022-08-31T06:12:03.881Z,96943.81
2022-08-31T06:13:06.890Z,96945.44
2022-08-31T06:14:10.346Z,96947.56
2022-08-31T06:15:12.248Z,96950.25
2022-08-31T06:16:14.757Z,96943.66
2022-08-31T06:17:17.697Z,96939.16
2022-08-31T06:18:21.431Z,96948.72
2022-08-31T06:19:23.311Z,96942.34
2022-08-31T06:20:25.210Z,96949.97
2022-08-31T06:21:33.898Z,96949.25
2022-08-31T06:22:36.772Z,96948.97
2022-08-31T06:23:39.596Z,96952.94
2022-08-31T06:24:41.845Z,96957.66
2022-08-31T06:25:43.671Z,96951.28
2022-08-31T06:26:58.935Z,96951.03
2022-08-31T06:28:01.916Z,96947.34
2022-08-31T06:29:05.369Z,96941.78
2022-08-31T06:30:08.180Z,96947.84
2022-08-31T06:31:18.857Z,96948.66
2022-08-31T06:32:21.907Z,96945.47
2022-08-31T06:33:23.804Z,96940.69
2022-08-31T06:34:25.651Z,96941.19
2022-08-31T06:35:27.633Z,96939.88
2022-08-31T06:36:30.475Z,96939.38
2022-08-31T06:37:32.316Z,96945.75
2022-08-31T06:38:34.296Z,96941.03
2022-08-31T06:39:36.470Z,96939.72
2022-08-31T06:40:38.354Z,96940.00
2022-08-31T06:41:41.003Z,96942.16
2022-08-31T06:42:42.848Z,96944.81
2022-08-31T06:43:44.969Z,96949.56
2022-08-31T06:44:46.957Z,96943.81
2022-08-31T06:45:48.842Z,96945.94
2022-08-31T06:46:51.418Z,96940.16
2022-08-31T06:47:53.480Z,96944.63
2022-08-31T06:48:56.084Z,96948.59
2022-08-31T06:49:58.089Z,96950.69
2022-08-31T06:51:00.480Z,96953.88
2022-08-31T06:52:02.770Z,96951.53
2022-08-31T06:53:04.876Z,96947.81
2022-08-31T06:54:27.899Z,96940.16
2022-08-31T06:55:30.022Z,96945.06
2022-08-31T06:56:31.891Z,96943.44
2022-08-31T06:57:35.537Z,96935.22
2022-08-31T06:58:38.217Z,96940.50
2022-08-31T06:59:40.128Z,96934.44
2022-08-31T07:00:43.196Z,96945.25
2022-08-31T07:01:45.085Z,96934.94
2022-08-31T07:02:57.214Z,96928.28
2022-08-31T07:04:00.490Z,96937.28
2022-08-31T07:05:02.271Z,96926.47
2022-08-31T07:06:14.879Z,96932.84
2022-08-31T07:07:16.786Z,96935.75
2022-08-31T07:08:20.148Z,96938.16
2022-08-31T07:09:22.088Z,96934.22
2022-08-31T07:10:23.972Z,96932.91
2022-08-31T07:11:27.906Z,96933.72
2022-08-31T07:12:31.012Z,96930.06
2022-08-31T07:13:33.068Z,96939.34
2022-08-31T07:14:36.012Z,96935.66
2022-08-31T07:15:37.897Z,96935.41
2022-08-31T07:16:40.243Z,96932.50
2022-08-31T07:17:42.126Z,96936.75
2022-08-31T07:18:44.509Z,96943.06
2022-08-31T07:19:46.310Z,96937.78
2022-08-31T07:20:48.296Z,96933.03
2022-08-31T07:21:52.189Z,96942.06
2022-08-31T07:22:53.986Z,96941.56
2022-08-31T07:23:57.710Z,96940.00
2022-08-31T07:24:59.622Z,96930.22
2022-08-31T07:26:09.325Z,96934.22
2022-08-31T07:27:16.620Z,96934.22
2022-08-31T07:28:18.558Z,96930.78
2022-08-31T07:29:21.992Z,96936.09
2022-08-31T07:30:24.104Z,96932.16
2022-08-31T07:31:30.655Z,96934.00
2022-08-31T07:32:32.508Z,96936.13
2022-08-31T07:33:39.247Z,96932.19
2022-08-31T07:34:41.719Z,96933.78
2022-08-31T07:35:43.648Z,96932.72
2022-08-31T07:37:04.025Z,96939.09
2022-08-31T07:38:24.337Z,96932.47
2022-08-31T07:39:45.360Z,96929.03
2022-08-31T07:41:05.739Z,96933.53
2022-08-31T07:42:10.334Z,96930.91
2022-08-31T07:43:12.485Z,96928.50
2022-08-31T07:44:15.211Z,96926.09
2022-08-31T07:45:22.636Z,96935.41
2022-08-31T07:46:30.331Z,96930.38
2022-08-31T07:47:32.812Z,96928.84
2022-08-31T07:48:34.720Z,96935.44
2022-08-31T07:49:37.463Z,96933.09
2022-08-31T07:50:45.224Z,96931.53
2022-08-31T07:51:52.767Z,96937.06
2022-08-31T07:52:56.072Z,96931.28
2022-08-31T07:53:57.945Z,96932.84
2022-08-31T07:55:08.086Z,96934.16
2022-08-31T07:56:09.980Z,96932.28
2022-08-31T07:57:11.900Z,96930.16
2022-08-31T07:58:15.718Z,96934.44
2022-08-31T07:59:19.337Z,96933.94
2022-08-31T08:00:28.558Z,96928.09
2022-08-31T08:01:32.475Z,96931.56
2022-08-31T08:02:39.019Z,96931.56
2022-08-31T08:03:45.072Z,96933.13
2022-08-31T08:04:48.276Z,96927.06
2022-08-31T08:05:50.787Z,96932.88
2022-08-31T08:06:56.333Z,96926.28
2022-08-31T08:08:10.667Z,96928.16
2022-08-31T08:09:25.008Z,96928.72
2022-08-31T08:10:27.857Z,96922.66
2022-08-31T08:11:29.773Z,96932.44
2022-08-31T08:12:35.563Z,96928.47
2022-08-31T08:13:38.343Z,96927.72
2022-08-31T08:14:40.454Z,96932.72
2022-08-31T08:15:42.337Z,96928.78
2022-08-31T08:16:44.288Z,96930.38
2022-08-31T08:17:46.216Z,96932.75
2022-08-31T08:18:48.204Z,96934.66
2022-08-31T08:19:50.066Z,96933.06
2022-08-31T08:20:53.067Z,96932.53
2022-08-31T08:21:55.872Z,96932.00
2022-08-31T08:22:58.129Z,96929.91
2022-08-31T08:24:00.435Z,96935.47
2022-08-31T08:25:02.622Z,96931.25
2022-08-31T08:26:09.506Z,96928.03
2022-08-31T08:27:13.905Z,96924.06
2022-08-31T08:29:40.375Z,96927.25
2022-08-31T08:30:44.303Z,96933.88
2022-08-31T08:31:53.351Z,96934.13
2022-08-31T08:32:55.260Z,96933.09
2022-08-31T08:33:57.261Z,96929.38
2022-08-31T08:34:59.561Z,96937.84
2022-08-31T08:36:03.399Z,96929.91
2022-08-31T08:37:06.270Z,96935.75
2022-08-31T08:38:08.193Z,96938.38
2022-08-31T08:39:10.467Z,96937.06
2022-08-31T08:40:31.369Z,96933.88
2022-08-31T08:41:35.094Z,96940.50
2022-08-31T08:42:36.987Z,96942.88
2022-08-31T08:43:40.836Z,96938.38
2022-08-31T08:44:45.905Z,96939.44
2022-08-31T08:45:50.338Z,96939.44
2022-08-31T08:46:53.970Z,96940.25
2022-08-31T08:47:57.223Z,96947.66
2022-08-31T08:49:01.109Z,96943.69
2022-08-31T08:50:06.932Z,96943.66
2022-08-31T08:51:19.607Z,96942.34
2022-08-31T08:52:21.376Z,96946.84
2022-08-31T08:53:25.331Z,96950.28
2022-08-31T08:54:31.040Z,96944.22
2022-08-31T08:55:37.309Z,96946.84
2022-08-31T08:56:42.383Z,96947.66
2022-08-31T08:57:45.473Z,96953.22
2022-08-31T08:58:47.390Z,96954.78
2022-08-31T08:59:51.288Z,96955.06
2022-08-31T09:00:54.421Z,96952.66
2022-08-31T09:02:02.420Z,96954.00
2022-08-31T09:03:07.264Z,96956.91
2022-08-31T09:04:27.524Z,96954.78
2022-08-31T09:05:52.542Z,96952.13
2022-08-31T09:07:23.229Z,96954.78
2022-08-31T09:08:57.369Z,96955.81
2022-08-31T09:10:07.847Z,96955.81
2022-08-31T09:11:20.419Z,96961.66
2022-08-31T09:12:32.398Z,96964.06
2022-08-31T09:14:06.520Z,96964.06
2022-08-31T09:15:36.614Z,96965.34
2022-08-31T09:16:42.555Z,96961.91
2022-08-31T09:17:59.985Z,96965.34
2022-08-31T09:19:05.296Z,96956.91
2022-08-31T09:20:07.883Z,96957.44
2022-08-31T09:21:27.604Z,96963.28
2022-08-31T09:22:30.540Z,96961.94
2022-08-31T09:23:35.841Z,96966.19
2022-08-31T09:24:38.781Z,96959.84
2022-08-31T09:25:52.721Z,96969.09
2022-08-31T09:27:18.814Z,96967.78
2022-08-31T09:28:34.322Z,96968.81
2022-08-31T09:29:45.310Z,96972.78
2022-08-31T09:30:53.232Z,96970.69
2022-08-31T09:32:06.467Z,96962.72
2022-08-31T09:33:15.960Z,96977.59
2022-08-31T09:34:29.819Z,96971.50
2022-08-31T09:35:41.500Z,96972.28
2022-08-31T09:36:43.463Z,96971.22
2022-08-31T09:37:57.579Z,96973.06
2022-08-31T09:39:14.047Z,96972.03
2022-08-31T09:40:24.448Z,96973.06
2022-08-31T09:41:29.330Z,96970.44
2022-08-31T09:42:33.888Z,96978.91
2022-08-31T09:43:41.183Z,96980.78
2022-08-31T09:44:43.947Z,96980.78
2022-08-31T09:45:53.214Z,96981.56
2022-08-31T09:47:01.561Z,96979.97
2022-08-31T09:48:05.263Z,96978.38
2022-08-31T09:49:18.965Z,96976.78
2022-08-31T09:50:34.969Z,96990.31
2022-08-31T09:51:38.762Z,96989.75
2022-08-31T09:52:59.130Z,96986.56
2022-08-31T09:54:25.015Z,96991.34
2022-08-31T09:55:28.208Z,96987.66
2022-08-31T09:56:30.207Z,96993.47
2022-08-31T09:57:50.914Z,96994.00
2022-08-31T09:59:03.112Z,96989.22
2022-08-31T10:00:05.195Z,96987.91
2022-08-31T10:01:13.571Z,96993.72
2022-08-31T10:02:23.020Z,96997.44
2022-08-31T10:03:29.019Z,96995.03
2022-08-31T10:04:36.927Z,96995.81
2022-08-31T10:05:43.884Z,96993.97
2022-08-31T10:06:53.315Z,97000.34
2022-08-31T10:08:04.572Z,97002.44
2022-08-31T10:09:10.745Z,97006.91
2022-08-31T10:10:28.114Z,97004.56
2022-08-31T10:11:35.385Z,97003.72
2022-08-31T10:12:49.279Z,97008.75
2022-08-31T10:13:58.053Z,97005.56
2022-08-31T10:15:04.344Z,97008.19
2022-08-31T10:16:17.359Z,97011.63
2022-08-31T10:17:47.402Z,97009.25
2022-08-31T10:18:59.237Z,97015.06
2022-08-31T10:20:25.310Z,97021.44
2022-08-31T10:21:51.630Z,97017.19
2022-08-31T10:22:56.747Z,97020.09
2022-08-31T10:23:59.163Z,97026.69
2022-08-31T10:25:12.174Z,97027.22
2022-08-31T10:26:19.175Z,97030.13
2022-08-31T10:27:31.819Z,97029.34
2022-08-31T10:28:40.758Z,97024.50
2022-08-31T10:29:46.379Z,97027.66
2022-08-31T10:30:52.157Z,97033.47
2022-08-31T10:31:55.921Z,97035.34
2022-08-31T10:33:05.261Z,97036.91
2022-08-31T10:34:25.596Z,97041.38
2022-08-31T10:35:46.090Z,97042.69
2022-08-31T10:36:50.405Z,97038.47
2022-08-31T10:37:55.730Z,97036.06
2022-08-31T10:38:58.175Z,97042.69
2022-08-31T10:40:05.822Z,97038.13
2022-08-31T10:41:10.647Z,97042.09
2022-08-31T10:42:17.359Z,97047.63
2022-08-31T10:43:21.709Z,97046.81
2022-08-31T10:44:36.810Z,97048.66
2022-08-31T10:45:40.630Z,97047.06
2022-08-31T10:46:42.974Z,97045.22
2022-08-31T10:47:46.892Z,97056.84
2022-08-31T10:48:54.805Z,97059.75
2022-08-31T10:49:57.979Z,97050.75
2022-08-31T10:51:14.431Z,97051.78
2022-08-31T10:52:21.632Z,97053.63
2022-08-31T10:53:27.658Z,97060.25
2022-08-31T10:54:33.255Z,97055.44
2022-08-31T10:55:40.650Z,97058.59
2022-08-31T10:56:59.422Z,97067.56
2022-08-31T10:58:13.601Z,97063.53
2022-08-31T10:59:21.346Z,97057.97
2022-08-31T11:00:46.140Z,97064.31
2022-08-31T11:02:06.515Z,97060.34
2022-08-31T11:03:11.470Z,97059.81
2022-08-31T11:04:20.772Z,97057.97
2022-08-31T11:05:27.394Z,97058.53
2022-08-31T11:06:29.186Z,97060.09
2022-08-31T11:07:36.068Z,97065.41
2022-08-31T11:08:49.257Z,97062.44
2022-08-31T11:10:09.399Z,97063.75
2022-08-31T11:11:17.602Z,97066.88
2022-08-31T11:12:23.682Z,97062.38
2022-08-31T11:13:26.434Z,97060.78
2022-08-31T11:14:28.214Z,97063.44
2022-08-31T11:15:43.936Z,97062.59
2022-08-31T11:16:46.685Z,97063.66
2022-08-31T11:17:54.307Z,97063.66
2022-08-31T11:18:56.119Z,97067.34
2022-08-31T11:20:09.860Z,97063.66
2022-08-31T11:21:29.060Z,97072.09
2022-08-31T11:22:46.558Z,97074.19
2022-08-31T11:23:51.399Z,97074.94
2022-08-31T11:25:03.743Z,97071.50
2022-08-31T11:26:14.458Z,97073.66
2022-08-31T11:27:23.754Z,97074.19
2022-08-31T11:28:34.362Z,97077.66
2022-08-31T11:29:48.739Z,97075.25
2022-08-31T11:30:51.656Z,97078.91
2022-08-31T11:31:55.327Z,97076.25
2022-08-31T11:33:00.576Z,97072.78
2022-08-31T11:34:16.742Z,97070.97
2022-08-31T11:35:42.242Z,97078.38
2022-08-31T11:36:55.952Z,97073.91
2022-08-31T11:37:59.177Z,97072.06
2022-08-31T11:39:03.996Z,97070.44
2022-08-31T11:40:10.098Z,97068.88
2022-08-31T11:41:31.915Z,97071.97
2022-08-31T11:42:42.762Z,97075.44
2022-08-31T11:43:46.190Z,97076.00
2022-08-31T11:45:23.600Z,97075.19
2022-08-31T11:46:29.038Z,97068.09
2022-08-31T11:47:30.951Z,97074.94
2022-08-31T11:48:51.588Z,97069.06
2022-08-31T11:49:57.152Z,97079.31
2022-08-31T11:51:04.082Z,97077.91
2022-08-31T11:52:10.661Z,97071.22
2022-08-31T11:53:35.158Z,97073.88
2022-08-31T11:54:42.389Z,97075.94
2022-08-31T11:55:52.802Z,97083.84
2022-08-31T11:56:57.093Z,97076.97
2022-08-31T11:58:07.843Z,97077.50
2022-08-31T11:59:34.337Z,97083.03
2022-08-31T12:00:41.896Z,97086.50
2022-08-31T12:01:45.318Z,97083.53
2022-08-31T12:03:03.014Z,97084.34
2022-08-31T12:04:06.354Z,97086.97
2022-08-31T12:05:08.502Z,97092.78
2022-08-31T12:06:25.892Z,97089.81
2022-08-31T12:07:31.953Z,97095.88
2022-08-31T12:08:47.074Z,97088.44
2022-08-31T12:09:49.485Z,97095.81
2022-08-31T12:10:51.475Z,97089.75
2022-08-31T12:11:57.686Z,97085.25
2022-08-31T12:13:07.725Z,97085.00
2022-08-31T12:14:26.348Z,97082.59
2022-08-31T12:15:34.807Z,97085.00
2022-08-31T12:16:42.551Z,97082.69
2022-08-31T12:17:53.362Z,97072.09
2022-08-31T12:19:39.687Z,97076.84
2022-08-31T12:21:13.532Z,97077.31
2022-08-31T12:22:59.455Z,97073.09
2022-08-31T12:24:06.974Z,97072.78
2022-08-31T12:25:14.285Z,97077.75
2022-08-31T12:26:19.224Z,97072.19
2022-08-31T12:27:35.787Z,97067.94
2022-08-31T12:28:49.576Z,97072.97
2022-08-31T12:29:51.478Z,97071.38
2022-08-31T12:30:55.132Z,97071.13
2022-08-31T12:32:05.452Z,97075.94
2022-08-31T12:33:15.318Z,97073.31
2022-08-31T12:34:20.019Z,97074.88
2022-08-31T12:35:27.007Z,97075.66
2022-08-31T12:36:30.083Z,97068.00
2022-08-31T12:37:33.562Z,97076.50
2022-08-31T12:38:35.382Z,97072.00
2022-08-31T12:39:37.279Z,97077.28
2022-08-31T12:40:43.411Z,97069.59
2022-08-31T12:41:49.667Z,97072.00
2022-08-31T12:42:57.117Z,97063.00
2022-08-31T12:43:59.004Z,97064.38
2022-08-31T12:45:05.951Z,97073.09
2022-08-31T12:46:10.920Z,97076.78
2022-08-31T12:47:15.478Z,97076.50
2022-08-31T12:48:20.334Z,97071.69
2022-08-31T12:49:39.156Z,97077.75